Time;durP1;ratioP1;P1;durP2;ratioP2;P2;SDS_P1;SDS_P2;PMS_P1;PMS_P2;Temp;Humidity;BMP_temperature;BMP_pressure;BME280_temperature;BME280_humidity;BME280_pressure;Samples;Min_cycle;Max_cycle;Signal;HPM_P1;HPM_P2
2022/01/12 00:00:07;;;;;;;24.45;15.52;;;;;;;0.73;72.76;100757.97;5070446;28;20813;-21
2022/01/12 00:02:32;;;;;;;11.90;6.93;;;;;;;0.79;72.63;100772.34;5088389;28;20169;-20
2022/01/12 00:04:57;;;;;;;13.30;7.50;;;;;;;1.09;72.68;100773.16;5088548;28;20036;-20
2022/01/12 00:07:23;;;;;;;13.20;6.07;;;;;;;1.16;72.88;100775.06;5088891;28;20032;-20
2022/01/12 00:09:48;;;;;;;13.23;6.95;;;;;;;0.98;70.97;100782.00;5088798;28;20036;-20
2022/01/12 00:12:14;;;;;;;14.82;7.25;;;;;;;0.89;73.19;100788.09;5088565;28;20062;-20
2022/01/12 00:14:39;;;;;;;12.65;6.32;;;;;;;1.02;73.45;100780.75;5088680;28;20035;-20
2022/01/12 00:17:05;;;;;;;12.48;6.70;;;;;;;1.01;73.45;100779.13;5088035;28;20031;-20
2022/01/12 00:19:30;;;;;;;15.07;7.68;;;;;;;1.09;72.63;100784.50;5087863;28;20522;-20
2022/01/12 00:21:56;;;;;;;12.93;5.90;;;;;;;0.79;72.03;100802.03;5070037;28;20089;-20
2022/01/12 00:24:25;;;;;;;23.67;17.90;;;;;;;0.87;71.55;100779.53;5088477;28;20032;-21
2022/01/12 00:35:03;;;;;;;19.05;13.38;;;;;;;0.36;75.42;100795.34;5088077;28;20042;-20
2022/01/12 00:37:29;;;;;;;18.70;11.15;;;;;;;0.60;74.87;100794.16;5088136;28;20040;-20
2022/01/12 00:39:58;;;;;;;14.75;7.40;;;;;;;0.10;75.42;100797.66;5088203;28;20039;-20
2022/01/12 00:42:26;;;;;;;14.45;7.40;;;;;;;-0.11;77.26;100770.63;5087843;28;20035;-20
2022/01/12 00:44:53;;;;;;;13.43;6.90;;;;;;;0.31;75.79;100805.44;5088354;28;20039;-20
2022/01/12 00:47:18;;;;;;;15.55;6.55;;;;;;;-0.16;76.30;100775.44;5087813;28;20050;-20
2022/01/12 00:49:44;;;;;;;15.65;7.18;;;;;;;-0.10;77.79;100794.09;5088053;28;20476;-21
2022/01/12 00:52:09;;;;;;;14.43;6.72;;;;;;;0.07;77.91;100815.44;5087901;28;20032;-20
2022/01/12 00:54:34;;;;;;;16.90;8.65;;;;;;;-0.13;77.76;100804.84;5069470;28;20081;-20
2022/01/12 00:57:00;;;;;;;18.67;8.65;;;;;;;0.08;78.19;100820.56;5087443;28;20480;-20
2022/01/12 00:59:25;;;;;;;16.10;7.78;;;;;;;0.44;76.01;100817.47;5087916;28;20039;-20
2022/01/12 01:01:51;;;;;;;15.32;7.40;;;;;;;-0.13;75.88;100785.66;5087911;28;20032;-20
2022/01/12 01:04:16;;;;;;;23.98;10.02;;;;;;;0.15;76.88;100812.97;5087589;28;20503;-20
2022/01/12 01:06:42;;;;;;;21.15;10.30;;;;;;;0.28;77.14;100810.94;5069368;28;20024;-20
2022/01/12 01:09:07;;;;;;;35.40;14.70;;;;;;;0.43;75.10;100798.28;5087228;28;20031;-19
2022/01/12 01:11:33;;;;;;;25.33;11.95;;;;;;;0.30;73.92;100808.19;5087434;28;20079;-20
2022/01/12 01:14:01;;;;;;;20.88;8.82;;;;;;;0.14;73.40;100816.53;5086885;28;20525;-20
2022/01/12 01:25:25;;;;;;;25.38;11.18;;;;;;;0.24;75.75;100812.16;5087691;28;20103;-20
2022/01/12 01:27:29;;;;;;;15.38;7.55;;;;;;;0.17;79.56;100816.28;5087147;28;20093;-21
2022/01/12 01:29:55;;;;;;;15.73;7.28;;;;;;;0.05;81.70;100825.22;5087336;28;20036;-21
2022/01/12 01:32:21;;;;;;;13.90;7.28;;;;;;;0.42;81.16;100822.03;5087088;28;20447;-21
2022/01/12 01:34:48;;;;;;;19.55;8.38;;;;;;;0.24;82.11;100793.78;5087130;28;20024;-20
2022/01/12 01:37:14;;;;;;;17.50;7.80;;;;;;;0.30;81.44;100803.75;5087112;28;20075;-20
2022/01/12 01:39:40;;;;;;;26.25;11.85;;;;;;;0.33;82.08;100798.25;5068902;28;20282;-20
2022/01/12 01:42:15;;;;;;;28.80;12.82;;;;;;;0.48;80.87;100827.56;5087308;28;20047;-21
2022/01/12 01:55:19;;;;;;;12.27;6.28;;;;;;;-0.82;82.32;100806.25;5071544;28;20539;-20
2022/01/12 01:57:44;;;;;;;10.65;5.57;;;;;;;-0.71;81.10;100804.53;5068555;28;20032;-20
2022/01/12 02:00:13;;;;;;;14.68;6.70;;;;;;;-0.58;82.37;100839.22;5087235;28;20484;-20
2022/01/12 02:02:38;;;;;;;12.27;6.22;;;;;;;-0.76;81.77;100806.69;5068991;28;20032;-20
2022/01/12 02:05:05;;;;;;;16.08;7.25;;;;;;;-0.53;81.34;100842.28;5086741;28;20128;-20
2022/01/12 02:07:32;;;;;;;12.40;6.32;;;;;;;-0.27;80.48;100847.13;5086856;28;20028;-20
2022/01/12 02:09:58;;;;;;;14.90;6.45;;;;;;;-0.53;81.54;100851.94;5068488;28;20035;-20
2022/01/12 02:12:29;;;;;;;14.20;6.88;;;;;;;-0.39;80.75;100848.97;5086876;28;20028;-25
2022/01/12 02:14:56;;;;;;;12.60;6.57;;;;;;;-0.27;79.92;100853.19;5087082;28;20088;-20
2022/01/12 02:17:26;;;;;;;14.32;7.18;;;;;;;-0.51;79.04;100835.13;5068831;28;20039;-20
2022/01/12 02:20:09;;;;;;;20.23;10.98;;;;;;;-0.22;80.36;100865.94;5086618;28;20508;-20
2022/01/12 02:36:26;;;;;;;686.05;252.25;;;;;;;-0.43;79.77;100858.91;5090867;28;20047;-20
2022/01/12 02:41:38;;;;;;;96.57;72.07;;;;;;;-0.47;78.36;100852.25;5090412;28;20059;-20
2022/01/12 02:54:46;;;;;;;21.30;12.57;;;;;;;-0.22;75.64;100866.75;5057003;28;20411;-20
2022/01/12 02:57:12;;;;;;;14.48;7.70;;;;;;;-0.09;76.16;100863.09;5089758;28;20028;-21
2022/01/12 02:59:40;;;;;;;14.95;7.28;;;;;;;-0.06;77.73;100882.03;5090065;28;20028;-20
2022/01/12 03:04:35;;;;;;;;;;;;;;;0.11;76.39;100888.47;5090681;28;20032;-20
2022/01/12 03:07:07;;;;;;;12.80;7.53;;;;;;;0.18;75.69;100880.88;5089641;28;19923;-21
2022/01/12 03:09:32;;;;;;;31.13;21.17;;;;;;;0.63;73.00;100879.69;5089996;28;20040;-20
2022/01/12 03:11:58;;;;;;;24.60;17.13;;;;;;;0.51;72.49;100884.19;5089622;28;20115;-20
2022/01/12 03:14:23;;;;;;;25.70;17.33;;;;;;;0.33;72.31;100887.47;5089713;28;20473;-20
2022/01/12 03:16:48;;;;;;;69.13;37.25;;;;;;;0.07;69.66;100896.72;5089549;28;20062;-20
2022/01/12 03:19:14;;;;;;;24.92;12.90;;;;;;;-0.13;69.01;100886.13;5089671;28;20081;-20
2022/01/12 03:21:39;;;;;;;84.28;46.70;;;;;;;0.15;71.20;100882.00;5089527;28;20089;-20
2022/01/12 03:24:06;;;;;;;100.88;62.38;;;;;;;0.27;71.40;100893.22;5089547;28;20450;-20
2022/01/12 03:26:33;;;;;;;223.88;124.20;;;;;;;-0.16;74.32;100902.13;5089450;28;20032;-20
2022/01/12 03:28:59;;;;;;;203.03;122.63;;;;;;;-0.49;75.35;100871.66;5089101;28;20492;-20
2022/01/12 03:31:28;;;;;;;133.75;82.20;;;;;;;-0.43;76.14;100916.56;5089183;28;20066;-21
2022/01/12 03:33:58;;;;;;;21.55;12.27;;;;;;;-0.62;75.84;100901.50;5089425;28;20027;-19
2022/01/12 04:09:24;;;;;;;24.25;13.93;;;;;;;-0.39;76.66;100953.00;5088455;28;20043;-20
2022/01/12 04:11:49;;;;;;;26.20;15.00;;;;;;;-0.23;76.33;100958.63;5088485;28;20039;-19
2022/01/12 04:14:15;;;;;;;30.25;20.60;;;;;;;-0.46;76.00;100948.25;5070073;28;20043;-19
2022/01/12 04:16:40;;;;;;;21.02;12.25;;;;;;;-0.61;77.01;100945.09;5088184;28;20024;-20
2022/01/12 04:19:06;;;;;;;16.35;8.95;;;;;;;-0.59;76.28;100968.56;5087892;28;20054;-21
2022/01/12 04:21:35;;;;;;;15.95;7.90;;;;;;;-0.66;76.24;100977.84;5069925;28;20042;-20
2022/01/12 04:24:00;;;;;;;17.38;9.63;;;;;;;-0.87;76.62;100986.47;5088300;28;20032;-19
2022/01/12 04:26:26;;;;;;;14.63;7.72;;;;;;;-0.67;76.01;100965.72;5087998;28;20028;-20
2022/01/12 04:28:52;;;;;;;19.58;9.63;;;;;;;-0.26;74.38;100992.97;5088137;28;20027;-19
2022/01/12 04:31:18;;;;;;;19.88;12.23;;;;;;;-0.56;74.58;100968.28;5087863;28;20032;-20
2022/01/12 04:33:44;;;;;;;15.07;7.78;;;;;;;-0.52;75.69;101001.16;5087986;28;20827;-20
2022/01/12 04:36:10;;;;;;;12.18;6.63;;;;;;;-0.53;75.63;101007.38;5069667;28;20028;-19
2022/01/12 04:38:36;;;;;;;16.05;7.90;;;;;;;-0.45;75.93;101007.56;5088199;28;20063;-20
2022/01/12 04:41:07;;;;;;;14.05;6.90;;;;;;;-0.64;75.79;101012.63;5087503;28;20500;-20
2022/01/12 04:43:32;;;;;;;13.65;7.35;;;;;;;-0.73;75.83;101002.91;5069843;28;20036;-20
2022/01/12 04:50:51;;;;;;;11.82;6.72;;;;;;;-1.19;76.56;101023.03;5069734;28;20426;-19
2022/01/12 04:53:18;;;;;;;14.63;8.18;;;;;;;-1.20;76.69;101015.31;5087362;28;20027;-20
2022/01/12 04:55:44;;;;;;;13.68;6.85;;;;;;;-1.10;77.49;101031.97;5087731;28;20531;-20
2022/01/12 04:58:09;;;;;;;35.40;15.02;;;;;;;-0.91;78.20;101039.22;5087437;28;20028;-20
2022/01/12 05:00:36;;;;;;;50.03;25.65;;;;;;;-0.86;77.76;101040.53;5069365;28;20032;-20
2022/01/12 05:13:46;;;;;;;14.43;8.80;;;;;;;-1.29;78.18;101058.72;5072114;28;20469;-21
2022/01/12 05:16:12;;;;;;;30.83;15.43;;;;;;;-1.41;79.51;101052.63;5069177;28;20039;-19
2022/01/12 05:18:37;;;;;;;36.90;19.15;;;;;;;-1.37;78.69;101056.69;5068993;28;20054;-20
2022/01/12 05:21:03;;;;;;;31.67;15.98;;;;;;;-1.28;77.11;101045.53;5086992;28;20034;-20
2022/01/12 05:23:29;;;;;;;47.78;25.25;;;;;;;-1.18;76.97;101044.81;5068894;28;20046;-20
2022/01/12 05:25:54;;;;;;;22.10;9.68;;;;;;;-1.22;76.22;101068.59;5087759;28;20679;-20
2022/01/12 05:28:20;;;;;;;21.20;10.43;;;;;;;-1.27;77.21;101077.75;5087068;28;20031;-21
2022/01/12 05:30:46;;;;;;;20.95;9.75;;;;;;;-1.42;76.90;101074.53;5069102;28;20028;-20
2022/01/12 05:33:12;;;;;;;37.33;19.90;;;;;;;-1.34;76.75;101077.41;5086976;28;20491;-19
2022/01/12 05:35:37;;;;;;;53.60;25.77;;;;;;;-1.15;76.31;101086.47;5086977;28;20024;-20
2022/01/12 05:38:04;;;;;;;42.53;21.70;;;;;;;-1.32;75.81;101090.38;5087090;28;20028;-20
2022/01/12 05:40:30;;;;;;;39.50;26.55;;;;;;;-1.26;76.28;101079.44;5068535;28;20063;-20
2022/01/12 05:42:56;;;;;;;32.40;15.68;;;;;;;-1.25;75.47;101084.56;5087168;28;20057;-20
2022/01/12 05:45:22;;;;;;;40.55;16.25;;;;;;;-1.24;74.85;101098.47;5069249;28;20031;-21
2022/01/12 05:50:14;;;;;;;48.25;17.90;;;;;;;-1.36;76.38;101105.47;5086918;28;20028;-20
2022/01/12 05:52:40;;;;;;;45.28;18.65;;;;;;;-1.24;75.17;101112.38;5087232;28;20043;-20
2022/01/12 05:55:06;;;;;;;35.25;13.48;;;;;;;-1.60;76.81;101089.00;5051900;28;20652;-21
2022/01/12 05:57:32;;;;;;;28.42;11.38;;;;;;;-1.74;76.02;101111.75;5069060;28;20039;-20
2022/01/12 06:00:01;;;;;;;45.20;17.65;;;;;;;-1.49;76.26;101115.16;5070478;28;20396;-20
2022/01/12 06:02:27;;;;;;;32.35;15.43;;;;;;;-1.45;75.31;101116.59;5073223;28;20056;-20
2022/01/12 06:04:52;;;;;;;40.20;15.98;;;;;;;-1.41;75.05;101110.19;5090960;28;20055;-20
2022/01/12 06:07:18;;;;;;;42.67;15.07;;;;;;;-1.43;75.32;101120.78;5090395;28;20036;-21
2022/01/12 06:09:43;;;;;;;37.63;14.07;;;;;;;-1.48;76.08;101111.63;5072340;28;20028;-20
2022/01/12 06:12:09;;;;;;;28.60;12.75;;;;;;;-1.05;75.23;101135.38;5072415;28;20500;-20
2022/01/12 06:14:35;;;;;;;35.25;14.95;;;;;;;-1.27;75.35;101136.19;5090624;28;20085;-20
2022/01/12 06:17:00;;;;;;;57.65;20.15;;;;;;;-1.26;76.00;101148.31;5072258;28;20036;-20
2022/01/12 06:19:26;;;;;;;43.83;17.05;;;;;;;-1.02;74.82;101144.78;5090479;28;20581;-20
2022/01/12 06:21:51;;;;;;;62.83;23.13;;;;;;;-1.22;74.72;101144.50;5090595;28;20043;-21
2022/01/12 06:24:17;;;;;;;53.88;19.13;;;;;;;-1.26;75.65;101140.47;5090459;28;20055;-20
2022/01/12 06:26:43;;;;;;;45.33;17.02;;;;;;;-1.25;75.69;101164.84;5072388;28;20032;-21
2022/01/12 06:31:35;;;;;;;30.25;13.50;;;;;;;-1.15;75.58;101165.81;5090571;28;20400;-20
2022/01/12 06:34:01;;;;;;;20.23;9.68;;;;;;;-1.27;76.67;101177.19;5090112;28;20419;-21
2022/01/12 06:36:26;;;;;;;28.48;12.52;;;;;;;-1.22;77.41;101170.69;5090334;28;20027;-20
2022/01/12 06:38:52;;;;;;;39.25;16.45;;;;;;;-0.72;75.33;101191.34;5090321;28;20040;-20
2022/01/12 06:41:18;;;;;;;81.32;27.70;;;;;;;-0.88;74.63;101199.56;5090130;28;20024;-20
2022/01/12 06:43:43;;;;;;;36.45;15.38;;;;;;;-1.38;76.30;101192.88;5071858;28;20450;-20
2022/01/12 06:46:09;;;;;;;30.83;12.98;;;;;;;-1.46;76.57;101189.03;5071988;28;20032;-20
2022/01/12 06:48:34;;;;;;;57.55;21.98;;;;;;;-1.38;76.13;101208.59;5089946;28;20020;-21
2022/01/12 06:51:00;;;;;;;60.42;22.70;;;;;;;-1.78;75.91;101170.47;5054758;28;20067;-20
2022/01/12 06:53:26;;;;;;;143.15;49.55;;;;;;;-1.35;76.02;101201.31;5071518;28;20107;-20
2022/01/12 06:55:51;;;;;;;99.70;39.45;;;;;;;-1.32;75.50;101208.97;5089765;28;20032;-20
2022/01/12 06:58:17;;;;;;;163.30;64.82;;;;;;;-1.15;74.71;101206.88;5089980;28;20024;-20
2022/01/12 07:00:42;;;;;;;24.67;11.02;;;;;;;-1.22;74.09;101216.97;5089643;28;20028;-21
2022/01/12 07:03:08;;;;;;;88.05;34.67;;;;;;;-1.08;73.89;101234.28;5071509;28;20032;-20
2022/01/12 07:05:33;;;;;;;31.58;12.50;;;;;;;-1.25;74.18;101219.78;5071298;28;20051;-20
2022/01/12 07:07:59;;;;;;;21.02;11.35;;;;;;;-1.06;74.43;101221.91;5089297;28;20084;-20
2022/01/12 07:10:24;;;;;;;44.95;17.02;;;;;;;-1.14;74.03;101219.03;5089439;28;20031;-20
2022/01/12 07:12:50;;;;;;;23.65;10.75;;;;;;;-1.05;73.26;101234.03;5088894;28;20039;-20
2022/01/12 07:15:15;;;;;;;19.20;10.07;;;;;;;-1.07;74.04;101241.16;5089415;28;20036;-20
2022/01/12 07:17:42;;;;;;;16.67;8.45;;;;;;;-1.07;73.67;101249.84;5089265;28;20024;-20
2022/01/12 07:20:08;;;;;;;14.70;8.13;;;;;;;-0.98;73.63;101240.50;5089554;28;20040;-20
2022/01/12 07:22:33;;;;;;;21.23;8.90;;;;;;;-1.37;74.56;101226.75;5089027;28;20158;-20
2022/01/12 07:24:59;;;;;;;20.48;8.85;;;;;;;-1.33;74.60;101246.53;5089080;28;20028;-20
2022/01/12 07:27:24;;;;;;;21.42;9.15;;;;;;;-1.16;75.71;101242.69;5089432;28;20032;-20
2022/01/12 07:29:50;;;;;;;24.00;12.00;;;;;;;-1.42;75.92;101247.22;5089094;28;20476;-20
2022/01/12 07:32:15;;;;;;;33.33;15.98;;;;;;;-1.58;77.21;101238.81;5070920;28;20028;-20
2022/01/12 07:34:41;;;;;;;22.40;12.18;;;;;;;-1.29;76.67;101242.78;5070788;28;20035;-20
2022/01/12 07:37:06;;;;;;;33.80;17.33;;;;;;;-1.20;77.26;101256.94;5088741;28;20043;-21
2022/01/12 07:39:32;;;;;;;43.40;21.73;;;;;;;-1.36;77.49;101246.75;5089203;28;20043;-20
2022/01/12 07:41:57;;;;;;;29.38;15.25;;;;;;;-0.93;75.89;101264.53;5089324;28;20051;-21
2022/01/12 07:44:23;;;;;;;28.23;14.55;;;;;;;-0.49;76.05;101272.59;5088964;28;20024;-21
2022/01/12 07:46:48;;;;;;;30.00;15.18;;;;;;;-0.16;74.32;101278.81;5070537;28;20032;-20
2022/01/12 07:49:14;;;;;;;27.30;12.85;;;;;;;-0.36;72.84;101267.25;5088789;28;20024;-21
2022/01/12 07:51:40;;;;;;;35.90;18.55;;;;;;;-0.62;74.34;101277.94;5088483;28;20032;-20
2022/01/12 07:54:05;;;;;;;25.60;14.30;;;;;;;-0.68;74.39;101283.63;5088886;28;20032;-20
2022/01/12 07:56:31;;;;;;;21.83;11.35;;;;;;;-0.45;74.08;101285.38;5088666;28;20089;-22
2022/01/12 07:58:56;;;;;;;30.98;15.13;;;;;;;0.06;72.38;101291.09;5088479;28;20039;-21
2022/01/12 08:01:22;;;;;;;20.75;11.70;;;;;;;0.56;70.32;101271.31;5088615;28;20484;-22
2022/01/12 08:03:47;;;;;;;19.15;9.52;;;;;;;0.84;69.98;101294.47;5088629;28;20487;-20
2022/01/12 08:06:13;;;;;;;18.20;10.00;;;;;;;0.89;68.84;101297.59;5088446;28;20036;-21
2022/01/12 08:08:38;;;;;;;18.50;8.02;;;;;;;1.05;67.91;101308.50;5088542;28;20032;-26
2022/01/12 08:11:04;;;;;;;27.23;12.25;;;;;;;0.85;70.42;101306.66;5088707;28;20528;-20
2022/01/12 08:13:29;;;;;;;24.17;10.13;;;;;;;0.98;69.57;101309.94;5088372;28;20035;-21
2022/01/12 08:15:54;;;;;;;23.05;9.52;;;;;;;0.70;69.04;101309.59;5088274;28;20042;-20
2022/01/12 08:18:20;;;;;;;47.00;16.25;;;;;;;1.09;68.31;101309.91;5088475;28;20063;-20
2022/01/12 08:20:45;;;;;;;68.88;25.45;;;;;;;1.11;62.68;101308.00;5069781;28;20028;-20
2022/01/12 08:23:11;;;;;;;26.17;15.52;;;;;;;1.29;63.06;101302.16;5087780;28;20043;-21
2022/01/12 08:25:40;;;;;;;46.30;20.73;;;;;;;1.43;62.43;101296.59;5088298;28;20032;-20
2022/01/12 08:28:07;;;;;;;21.10;11.18;;;;;;;1.04;62.64;101322.56;5087956;28;20070;-20
2022/01/12 08:30:34;;;;;;;13.55;6.72;;;;;;;0.76;60.96;101324.00;5088183;28;20492;-20
2022/01/12 08:33:00;;;;;;;14.27;10.25;;;;;;;1.05;60.85;101319.00;5087809;28;20130;-20
2022/01/12 08:35:27;;;;;;;19.25;10.88;;;;;;;1.63;62.59;101313.31;5087662;28;20119;-20
2022/01/12 08:37:53;;;;;;;27.52;11.98;;;;;;;1.38;62.26;101309.28;5070308;28;20032;-20
2022/01/12 08:40:19;;;;;;;18.75;12.05;;;;;;;1.47;61.78;101313.78;5069800;28;20173;-21
2022/01/12 08:42:44;;;;;;;11.60;6.32;;;;;;;1.28;61.06;101308.38;5069776;28;20063;-21
2022/01/12 08:45:10;;;;;;;18.92;12.38;;;;;;;1.30;61.22;101303.84;5069256;28;20028;-22
2022/01/12 08:47:36;;;;;;;25.63;12.27;;;;;;;1.48;62.76;101323.31;5087721;28;20042;-20
2022/01/12 08:50:01;;;;;;;42.30;17.05;;;;;;;2.16;61.73;101320.19;5087607;28;21087;-21
2022/01/12 08:52:30;;;;;;;20.52;12.52;;;;;;;2.26;58.75;101321.06;5087923;28;20028;-20
2022/01/12 08:54:56;;;;;;;11.63;6.38;;;;;;;2.29;60.85;101323.44;5069963;28;20043;-20
2022/01/12 08:57:21;;;;;;;25.80;16.50;;;;;;;2.64;58.89;101327.41;5087687;28;20028;-20
2022/01/12 08:59:47;;;;;;;19.40;10.63;;;;;;;2.33;58.74;101309.03;5087427;28;20028;-20
2022/01/12 09:02:14;;;;;;;26.55;14.60;;;;;;;2.20;58.27;101326.84;5068917;28;20027;-20
2022/01/12 09:04:43;;;;;;;19.48;11.77;;;;;;;1.71;61.80;101326.63;5069224;28;20615;-20
2022/01/12 09:07:08;;;;;;;39.60;26.15;;;;;;;1.80;58.83;101314.53;5087043;28;20032;-20
2022/01/12 09:09:35;;;;;;;39.00;24.25;;;;;;;2.03;58.98;101314.34;5087596;28;20051;-20
2022/01/12 09:12:01;;;;;;;25.63;17.75;;;;;;;1.69;58.86;101310.16;5087341;28;20044;-20
2022/01/12 09:14:27;;;;;;;44.72;18.67;;;;;;;2.26;58.30;101313.16;5087506;28;20028;-20
2022/01/12 09:16:54;;;;;;;34.35;18.35;;;;;;;2.67;57.74;101298.16;5087292;28;20055;-20
2022/01/12 09:19:21;;;;;;;26.60;9.85;;;;;;;2.54;57.28;101314.22;5086940;28;20835;-20
2022/01/12 09:21:46;;;;;;;27.60;10.52;;;;;;;2.05;56.27;101315.06;5069352;28;20119;-21
2022/01/12 09:24:12;;;;;;;46.13;21.70;;;;;;;1.97;59.44;101295.47;5069226;28;20040;-20
2022/01/12 09:26:37;;;;;;;29.67;16.10;;;;;;;2.25;59.32;101311.50;5069050;28;20579;-21
2022/01/12 09:29:03;;;;;;;45.92;21.80;;;;;;;2.64;60.30;101323.94;5086854;28;20032;-20
2022/01/12 09:31:28;;;;;;;39.25;21.67;;;;;;;1.94;57.97;101305.44;5087155;28;20039;-20
2022/01/12 09:33:54;;;;;;;39.55;21.83;;;;;;;1.80;59.06;101304.00;5086598;28;20166;-20
2022/01/12 09:36:19;;;;;;;222.02;97.47;;;;;;;2.34;58.77;101302.81;5087311;28;20400;-20
2022/01/12 09:38:45;;;;;;;31.95;20.73;;;;;;;2.36;59.54;101306.13;5087029;28;20056;-20
2022/01/12 09:41:10;;;;;;;23.65;15.13;;;;;;;2.29;59.81;101315.56;5086709;28;20059;-21
2022/01/12 09:43:38;;;;;;;64.22;35.83;;;;;;;2.18;56.94;101302.47;5087118;28;20121;-21
2022/01/12 09:46:03;;;;;;;43.72;15.63;;;;;;;2.34;58.69;101301.97;5086882;28;20119;-20
2022/01/12 09:48:33;;;;;;;37.92;23.55;;;;;;;1.74;58.04;101294.00;5068522;28;20028;-20
2022/01/12 09:51:01;;;;;;;38.30;17.35;;;;;;;1.86;60.17;101298.22;5069380;28;20070;-20
2022/01/12 09:53:28;;;;;;;28.17;12.50;;;;;;;1.79;57.95;101283.91;5069239;28;20032;-20
2022/01/12 09:55:53;;;;;;;58.67;26.42;;;;;;;1.85;58.91;101290.44;5086937;28;20442;-20
2022/01/12 09:58:19;;;;;;;49.58;21.13;;;;;;;2.09;60.60;101288.31;5086845;28;20085;-21
2022/01/12 10:00:55;;;;;;;76.88;48.75;;;;;;;2.14;62.39;101275.59;5086571;28;20031;-20
2022/01/12 10:03:22;;;;;;;73.47;44.30;;;;;;;2.59;63.31;101290.09;5052076;28;20025;-20
2022/01/12 10:05:49;;;;;;;17.95;9.60;;;;;;;2.55;61.88;101288.72;5086785;28;20039;-20
2022/01/12 10:08:15;;;;;;;35.42;18.45;;;;;;;2.99;61.40;101291.81;5086837;28;20055;-20
2022/01/12 10:10:41;;;;;;;221.20;112.35;;;;;;;2.90;62.11;101295.25;5068700;28;20112;-19
2022/01/12 10:13:28;;;;;;;80.07;58.53;;;;;;;2.96;62.69;101292.91;5086464;28;20028;-20
2022/01/12 10:15:54;;;;;;;14.80;9.68;;;;;;;2.87;61.02;101274.47;5086860;28;20031;-20
2022/01/12 10:18:20;;;;;;;15.18;9.20;;;;;;;3.08;63.47;101282.22;5068074;28;20040;-20
2022/01/12 10:20:46;;;;;;;13.45;7.50;;;;;;;2.76;63.33;101294.72;5086498;28;20499;-20
2022/01/12 10:23:13;;;;;;;13.52;7.53;;;;;;;3.02;64.79;101291.50;5051484;28;20115;-20
2022/01/12 10:25:41;;;;;;;18.53;9.03;;;;;;;3.34;63.70;101290.38;5068632;28;20039;-20
2022/01/12 10:28:20;;;;;;;24.27;12.60;;;;;;;3.73;61.88;101285.81;5086212;28;20020;-21
2022/01/12 10:31:00;;;;;;;13.43;8.05;;;;;;;3.68;62.25;101276.66;5086697;28;20042;-21
2022/01/12 10:33:28;;;;;;;15.55;9.27;;;;;;;4.50;59.79;101291.72;5086893;28;20027;-20
2022/01/12 10:35:55;;;;;;;;;;;;;;;4.93;56.69;101294.63;5087102;28;20039;-21
2022/01/12 10:38:22;;;;;;;16.80;8.45;;;;;;;5.23;58.49;101294.19;5086047;28;19908;-20
2022/01/12 10:40:54;;;;;;;16.35;9.32;;;;;;;5.33;57.39;101291.47;5086469;28;20032;-20
2022/01/12 10:43:34;;;;;;;16.60;8.70;;;;;;;4.94;55.61;101296.25;5086067;28;20081;-20
2022/01/12 10:46:02;;;;;;;150.32;84.53;;;;;;;3.75;58.85;101288.31;5070038;28;20077;-20
2022/01/12 10:48:50;;;;;;;19.70;11.80;;;;;;;3.78;59.67;101293.31;5071502;28;20024;-20
2022/01/12 10:51:17;;;;;;;18.45;10.32;;;;;;;3.70;60.43;101298.47;5089776;28;20024;-20
2022/01/12 10:53:43;;;;;;;70.47;55.13;;;;;;;4.21;58.18;101305.09;5090178;28;20499;-20
2022/01/12 10:56:37;;;;;;;13.85;6.60;;;;;;;3.96;56.07;101299.50;5089875;28;20078;-21
2022/01/12 10:59:03;;;;;;;14.23;7.00;;;;;;;4.06;59.13;101298.63;5049553;28;20075;-21
2022/01/12 11:01:29;;;;;;;15.35;8.73;;;;;;;4.08;59.03;101307.22;5071299;28;20719;-20
2022/01/12 11:03:54;;;;;;;15.68;9.32;;;;;;;4.06;57.70;101290.69;5089662;28;20065;-20
2022/01/12 11:06:20;;;;;;;15.25;8.80;;;;;;;3.36;58.14;101277.88;5089910;28;20511;-20
2022/01/12 11:08:48;;;;;;;13.07;7.20;;;;;;;3.21;58.67;101285.41;5089270;28;20081;-19
2022/01/12 11:11:15;;;;;;;;;;;;;;;2.49;64.61;101300.59;5089897;28;20039;-20
2022/01/12 11:13:40;;;;;;;11.57;6.68;;;;;;;2.01;63.77;101281.09;5089614;28;19951;-20
2022/01/12 11:16:06;;;;;;;14.68;8.55;;;;;;;1.85;63.91;101283.38;5089930;28;20074;-21
2022/01/12 11:18:33;;;;;;;20.17;10.95;;;;;;;2.45;62.18;101287.84;5089332;28;20518;-20
2022/01/12 11:21:25;;;;;;;15.50;7.87;;;;;;;2.66;61.57;101290.41;5070948;28;20039;-20
2022/01/12 11:23:51;;;;;;;16.40;7.13;;;;;;;2.94;60.96;101299.28;5075679;28;20262;-20
2022/01/12 11:26:23;;;;;;;18.75;8.98;;;;;;;2.75;62.50;101298.28;5071068;28;20031;-20
2022/01/12 11:28:51;;;;;;;13.68;6.35;;;;;;;2.79;63.52;101297.03;5089125;28;20038;-20
2022/01/12 11:31:19;;;;;;;19.85;8.95;;;;;;;2.63;61.38;101278.31;5089319;28;20035;-20
2022/01/12 11:33:45;;;;;;;;;;;;;;;2.51;63.14;101287.31;5089803;28;20046;-20
2022/01/12 11:36:13;;;;;;;17.48;8.63;;;;;;;2.69;63.09;101290.94;5089237;28;19912;-20
2022/01/12 11:38:38;;;;;;;;;;;;;;;2.61;60.25;101290.78;5089301;28;20115;-20
2022/01/12 11:41:26;;;;;;;12.55;6.40;;;;;;;2.45;63.93;101287.84;5089015;28;19999;-19
2022/01/12 11:43:54;;;;;;;13.20;6.65;;;;;;;2.62;61.27;101292.47;5088917;28;20032;-20
2022/01/12 11:46:21;;;;;;;16.60;8.75;;;;;;;2.82;61.58;101290.69;5088985;28;20488;-20
2022/01/12 11:48:48;;;;;;;14.07;7.03;;;;;;;2.10;63.53;101281.25;5088657;28;20036;-20
2022/01/12 11:51:15;;;;;;;15.25;7.13;;;;;;;1.71;64.82;101275.84;5088583;28;20042;-20
2022/01/12 11:53:51;;;;;;;13.43;6.88;;;;;;;1.67;64.30;101279.69;5088860;28;20024;-20
2022/01/12 11:56:24;;;;;;;16.45;8.43;;;;;;;1.99;64.56;101290.09;5071317;28;20504;-20
2022/01/12 11:59:00;;;;;;;18.00;9.43;;;;;;;1.94;64.17;101295.75;5088139;28;20036;-21
2022/01/12 12:01:45;;;;;;;16.92;9.10;;;;;;;2.05;64.90;101291.38;5088620;28;20529;-20
2022/01/12 12:04:24;;;;;;;30.50;13.50;;;;;;;2.22;63.83;101295.97;5070434;28;20116;-20
2022/01/12 12:06:50;;;;;;;19.02;9.95;;;;;;;2.69;60.53;101277.78;5088517;28;20038;-20
2022/01/12 12:09:18;;;;;;;18.58;8.85;;;;;;;3.74;58.46;101303.34;5088178;28;20043;-20
2022/01/12 12:11:51;;;;;;;17.10;7.78;;;;;;;3.86;57.24;101301.31;5088276;28;20468;-20
2022/01/12 12:14:16;;;;;;;28.83;8.90;;;;;;;3.35;58.00;101290.25;5070458;28;20032;-19
2022/01/12 12:16:42;;;;;;;20.35;7.85;;;;;;;3.53;59.62;101303.50;5088595;28;20180;-21
2022/01/12 12:19:07;;;;;;;21.50;7.45;;;;;;;3.85;59.27;101297.03;5069617;28;20040;-20
2022/01/12 12:21:33;;;;;;;14.75;6.50;;;;;;;4.49;55.76;101299.78;5070004;28;20503;-20
2022/01/12 12:24:11;;;;;;;17.92;8.43;;;;;;;4.83;54.92;101311.38;5088157;28;20114;-20
2022/01/12 12:26:44;;;;;;;11.88;5.88;;;;;;;4.74;54.56;101328.13;5088145;28;20020;-22
2022/01/12 12:29:09;;;;;;;30.17;11.82;;;;;;;4.30;56.80;101319.22;5087727;28;20096;-20
2022/01/12 12:31:35;;;;;;;12.88;6.53;;;;;;;3.80;53.88;101323.88;5070002;28;20043;-20
2022/01/12 12:34:04;;;;;;;14.57;6.97;;;;;;;3.57;56.32;101310.16;5088100;28;20075;-20
2022/01/12 12:36:30;;;;;;;12.63;6.20;;;;;;;3.83;54.93;101325.38;5088136;28;20032;-20
2022/01/12 12:39:14;;;;;;;16.02;7.60;;;;;;;3.97;56.28;101314.34;5088027;28;20063;-22
2022/01/12 12:41:41;;;;;;;14.10;6.90;;;;;;;4.37;55.51;101301.78;5088324;28;20031;-20
2022/01/12 12:44:07;;;;;;;20.08;10.63;;;;;;;4.36;56.94;101330.03;5088037;28;20040;-20
2022/01/12 12:46:32;;;;;;;18.13;9.00;;;;;;;4.54;56.75;101326.59;5069885;28;20032;-20
2022/01/12 12:48:58;;;;;;;13.38;6.72;;;;;;;4.76;55.14;101331.47;5087354;28;20028;-21
2022/01/12 12:51:23;;;;;;;14.77;8.25;;;;;;;4.99;52.08;101336.31;5087588;28;20028;-19
2022/01/12 12:53:52;;;;;;;17.80;9.43;;;;;;;4.15;56.31;101329.44;5087618;28;20545;-19
2022/01/12 12:56:20;;;;;;;16.52;9.18;;;;;;;4.25;59.09;101327.59;5069848;28;20113;-19
2022/01/12 12:58:53;;;;;;;15.00;8.25;;;;;;;3.85;57.01;101336.63;5087657;28;20483;-20
2022/01/12 13:01:19;;;;;;;19.05;10.27;;;;;;;3.86;58.14;101319.78;5087119;28;20124;-20
2022/01/12 13:03:50;;;;;;;20.58;11.93;;;;;;;4.19;56.67;101328.19;5087603;28;20039;-20
2022/01/12 13:06:26;;;;;;;18.70;10.98;;;;;;;4.20;57.41;101348.31;5087209;28;20028;-20
2022/01/12 13:08:53;;;;;;;22.08;14.65;;;;;;;4.23;57.51;101350.66;5086720;28;20036;-20